createdAt,value
2019-01-29T00:00:26.504Z,1.56
2019-01-29T00:01:26.464Z,1.59
2019-01-29T00:02:26.431Z,1.55
2019-01-29T00:03:26.438Z,1.52
2019-01-29T00:04:26.406Z,1.58
2019-01-29T00:05:26.329Z,1.58
2019-01-29T00:06:26.296Z,1.49
2019-01-29T00:07:26.305Z,1.44
2019-01-29T00:08:26.219Z,1.56
2019-01-29T00:09:26.228Z,1.52
2019-01-29T00:10:26.172Z,1.45
2019-01-29T00:11:26.108Z,1.49
2019-01-29T00:12:26.144Z,1.42
2019-01-29T00:13:26.035Z,1.40
2019-01-29T00:14:26.053Z,1.37
2019-01-29T00:15:25.964Z,1.34
2019-01-29T00:16:25.944Z,1.41
2019-01-29T00:17:25.899Z,1.35
2019-01-29T00:18:25.926Z,1.31
2019-01-29T00:19:25.867Z,1.37
2019-01-29T00:20:25.788Z,1.42
2019-01-29T00:21:25.750Z,1.42
2019-01-29T00:22:33.232Z,1.42
2019-01-29T00:23:25.677Z,1.49
2019-01-29T00:24:25.681Z,1.48
2019-01-29T00:25:25.604Z,1.50
2019-01-29T00:26:25.568Z,1.45
2019-01-29T00:27:25.576Z,1.56
2019-01-29T00:28:25.500Z,1.53
2019-01-29T00:29:25.463Z,1.50
2019-01-29T00:30:25.427Z,1.49
2019-01-29T00:31:25.390Z,1.44
2019-01-29T00:32:25.403Z,1.49
2019-01-29T00:33:25.317Z,1.49
2019-01-29T00:34:25.284Z,1.49
2019-01-29T00:35:25.248Z,1.58
2019-01-29T00:36:25.322Z,1.48
2019-01-29T00:37:25.172Z,1.53
2019-01-29T00:38:25.137Z,1.60
2019-01-29T00:39:25.132Z,1.56
2019-01-29T00:40:25.076Z,1.42
2019-01-29T00:41:25.068Z,1.56
2019-01-29T00:42:25.052Z,1.53
2019-01-29T00:43:24.960Z,1.58
2019-01-29T00:44:24.919Z,1.52
2019-01-29T00:45:24.904Z,1.48
2019-01-29T00:46:24.849Z,1.59
2019-01-29T00:47:24.883Z,1.53
2019-01-29T00:48:24.778Z,1.60
2019-01-29T00:49:24.741Z,1.56
2019-01-29T00:50:24.705Z,1.60
2019-01-29T00:51:24.667Z,1.49
2019-01-29T00:52:24.684Z,1.56
2019-01-29T00:53:24.640Z,1.52
2019-01-29T00:54:24.562Z,1.45
2019-01-29T00:55:24.527Z,1.41
2019-01-29T00:56:24.490Z,1.42
2019-01-29T00:57:24.461Z,1.32
2019-01-29T00:58:24.475Z,1.30
2019-01-29T00:59:24.379Z,1.32
2019-01-29T01:00:24.351Z,1.26
2019-01-29T01:01:24.323Z,1.30
2019-01-29T01:02:25.024Z,1.26
2019-01-29T01:03:24.297Z,1.23
2019-01-29T01:04:24.359Z,1.24
2019-01-29T01:05:24.208Z,1.17
2019-01-29T01:06:31.520Z,1.22
2019-01-29T01:07:24.136Z,1.24
2019-01-29T01:08:24.070Z,1.30
2019-01-29T01:09:24.031Z,1.14
2019-01-29T01:10:23.983Z,1.23
2019-01-29T01:11:24.001Z,1.30
2019-01-29T01:12:23.911Z,1.31
2019-01-29T01:13:23.874Z,1.34
2019-01-29T01:14:23.843Z,1.35
2019-01-29T01:15:23.812Z,1.26
2019-01-29T01:16:23.821Z,1.35
2019-01-29T01:17:23.727Z,1.42
2019-01-29T01:18:23.692Z,1.34
2019-01-29T01:19:23.673Z,1.34
2019-01-29T01:20:23.623Z,1.31
2019-01-29T01:21:23.645Z,1.34
2019-01-29T01:22:23.554Z,1.44
2019-01-29T01:23:23.514Z,1.48
2019-01-29T01:24:23.478Z,1.52
2019-01-29T01:25:23.442Z,1.50
2019-01-29T01:26:23.451Z,1.50
2019-01-29T01:27:23.374Z,1.55
2019-01-29T01:28:23.334Z,1.49
2019-01-29T01:29:23.301Z,1.48
2019-01-29T01:30:23.262Z,1.50
2019-01-29T01:31:23.267Z,1.48
2019-01-29T01:32:23.189Z,1.55
2019-01-29T01:33:23.196Z,1.52
2019-01-29T01:34:23.119Z,1.50
2019-01-29T01:35:23.083Z,1.56
2019-01-29T01:36:23.045Z,1.62
2019-01-29T01:37:23.008Z,1.56
2019-01-29T01:38:23.021Z,1.56
2019-01-29T01:39:22.937Z,1.59
2019-01-29T01:40:22.975Z,1.58
2019-01-29T01:41:22.910Z,1.58
2019-01-29T01:42:22.871Z,1.67
2019-01-29T01:43:22.792Z,1.68
2019-01-29T01:44:22.765Z,1.59
2019-01-29T01:45:22.724Z,1.67
2019-01-29T01:46:22.732Z,1.63
2019-01-29T01:47:22.703Z,1.71
2019-01-29T01:48:22.619Z,1.63
2019-01-29T01:49:22.579Z,1.63
2019-01-29T01:50:22.546Z,1.60
2019-01-29T01:51:22.562Z,1.60
2019-01-29T01:52:22.476Z,1.58
2019-01-29T01:53:22.434Z,1.56
2019-01-29T01:54:22.408Z,1.60
2019-01-29T01:55:22.362Z,1.55
2019-01-29T01:56:22.379Z,1.48
2019-01-29T01:57:22.341Z,1.55
2019-01-29T01:58:22.254Z,1.52
2019-01-29T01:59:22.220Z,1.55
2019-01-29T02:00:22.190Z,1.44
2019-01-29T02:01:22.146Z,1.44
2019-01-29T02:02:22.156Z,1.45
2019-01-29T02:03:22.079Z,1.49
2019-01-29T02:04:22.036Z,1.49
2019-01-29T02:05:22.013Z,1.50
2019-01-29T02:06:21.968Z,1.42
2019-01-29T02:07:21.969Z,1.31
2019-01-29T02:08:21.935Z,1.37
2019-01-29T02:09:21.919Z,1.32
2019-01-29T02:10:21.825Z,1.30
2019-01-29T02:11:21.784Z,1.24
2019-01-29T02:12:21.795Z,1.17
2019-01-29T02:13:21.763Z,1.22
2019-01-29T02:14:21.683Z,1.17
2019-01-29T02:15:21.651Z,1.10
2019-01-29T02:16:21.628Z,1.05
2019-01-29T02:17:21.569Z,1.05
2019-01-29T02:18:21.589Z,1.12
2019-01-29T02:19:21.494Z,0.99
2019-01-29T02:20:21.472Z,0.99
2019-01-29T02:21:21.429Z,0.86
2019-01-29T02:22:21.385Z,0.95
2019-01-29T02:23:21.388Z,0.94
2019-01-29T02:24:21.359Z,0.83
2019-01-29T02:25:21.316Z,0.96
2019-01-29T02:26:21.266Z,0.83
2019-01-29T02:27:21.202Z,0.83
2019-01-29T02:28:21.169Z,0.69
2019-01-29T02:29:21.177Z,0.70
2019-01-29T02:30:21.162Z,0.76
2019-01-29T02:31:21.062Z,0.66
2019-01-29T02:32:21.020Z,0.70
2019-01-29T02:33:20.994Z,0.65
2019-01-29T02:34:20.947Z,0.68
2019-01-29T02:35:20.975Z,0.60
2019-01-29T02:36:20.874Z,0.59
2019-01-29T02:37:20.887Z,0.62
2019-01-29T02:38:20.806Z,0.60
2019-01-29T02:39:20.773Z,0.63
2019-01-29T02:40:20.775Z,0.62
2019-01-29T02:41:20.704Z,0.63
2019-01-29T02:42:20.717Z,0.63
2019-01-29T02:43:20.631Z,0.68
2019-01-29T02:44:20.583Z,0.62
2019-01-29T02:45:20.548Z,0.63
2019-01-29T02:46:20.556Z,0.60
2019-01-29T02:47:20.528Z,0.59
2019-01-29T02:48:20.439Z,0.52
2019-01-29T02:49:20.404Z,0.56
2019-01-29T02:50:20.373Z,0.58
2019-01-29T02:51:20.326Z,0.58
2019-01-29T02:52:20.335Z,0.59
2019-01-29T02:53:20.299Z,0.55
2019-01-29T02:54:21.119Z,0.58
2019-01-29T02:55:20.265Z,0.59
2019-01-29T02:56:20.143Z,0.58
2019-01-29T02:57:20.109Z,0.46
2019-01-29T02:58:20.115Z,0.55
2019-01-29T02:59:20.041Z,0.60
2019-01-29T03:00:20.044Z,0.55
2019-01-29T03:01:19.964Z,0.43
2019-01-29T03:02:19.923Z,0.55
2019-01-29T03:03:19.945Z,0.55
2019-01-29T03:04:19.861Z,0.44
2019-01-29T03:05:19.812Z,0.49
2019-01-29T03:06:19.775Z,0.55
2019-01-29T03:07:19.743Z,0.52
2019-01-29T03:08:19.773Z,0.41
2019-01-29T03:09:19.665Z,0.55
2019-01-29T03:10:19.636Z,0.50
2019-01-29T03:11:19.595Z,0.46
2019-01-29T03:12:19.555Z,0.40
2019-01-29T03:13:19.561Z,0.44
2019-01-29T03:14:19.482Z,0.44
2019-01-29T03:15:19.494Z,0.39
2019-01-29T03:16:19.410Z,0.46
2019-01-29T03:17:19.377Z,0.32
2019-01-29T03:18:19.386Z,0.36
2019-01-29T03:19:19.298Z,0.40
2019-01-29T03:20:19.266Z,0.41
2019-01-29T03:21:19.264Z,0.34
2019-01-29T03:22:19.254Z,0.43
2019-01-29T03:23:27.316Z,0.41
2019-01-29T03:24:19.117Z,0.36
2019-01-29T03:25:19.082Z,0.32
2019-01-29T03:26:19.042Z,0.31
2019-01-29T03:27:19.050Z,0.36
2019-01-29T03:28:18.965Z,0.31
2019-01-29T03:29:18.976Z,0.28
2019-01-29T03:30:18.890Z,0.31
2019-01-29T03:31:18.873Z,0.39
2019-01-29T03:32:18.829Z,0.36
2019-01-29T03:33:18.861Z,0.32
2019-01-29T03:34:18.745Z,0.37
2019-01-29T03:35:18.704Z,0.29
2019-01-29T03:36:18.673Z,0.32
2019-01-29T03:37:18.639Z,0.32
2019-01-29T03:38:18.646Z,0.37
2019-01-29T03:39:18.565Z,0.32
2019-01-29T03:40:18.528Z,0.31
2019-01-29T03:41:18.532Z,0.29
2019-01-29T03:42:18.444Z,0.34
2019-01-29T03:43:18.411Z,0.28
2019-01-29T03:44:18.379Z,0.36
2019-01-29T03:45:18.343Z,0.31
2019-01-29T03:46:18.339Z,0.32
2019-01-29T03:47:18.263Z,0.32
2019-01-29T03:48:18.225Z,0.32
2019-01-29T03:49:18.247Z,0.32
2019-01-29T03:50:18.152Z,0.37
2019-01-29T03:51:18.114Z,0.36
2019-01-29T03:52:18.076Z,0.36
2019-01-29T03:53:18.045Z,0.32
2019-01-29T03:54:18.124Z,0.31
2019-01-29T03:55:17.974Z,0.32
2019-01-29T03:56:17.931Z,0.36
2019-01-29T03:57:17.893Z,0.36
2019-01-29T03:58:17.921Z,0.32
2019-01-29T03:59:17.831Z,0.29
2019-01-29T04:00:17.791Z,0.39
2019-01-29T04:01:17.745Z,0.36
2019-01-29T04:02:17.708Z,0.28
2019-01-29T04:03:17.720Z,0.28
2019-01-29T04:04:17.635Z,0.28
2019-01-29T04:05:17.607Z,0.26
2019-01-29T04:06:17.618Z,0.29
2019-01-29T04:07:17.530Z,0.29
2019-01-29T04:08:17.497Z,0.21
2019-01-29T04:09:17.453Z,0.19
2019-01-29T04:10:17.416Z,0.22
2019-01-29T04:11:17.433Z,0.21
2019-01-29T04:12:17.345Z,0.19
2019-01-29T04:13:17.310Z,0.19
2019-01-29T04:14:17.272Z,0.19
2019-01-29T04:15:17.234Z,0.19
2019-01-29T04:16:17.242Z,0.18
2019-01-29T04:17:17.152Z,0.19
2019-01-29T04:18:17.117Z,0.22
2019-01-29T04:19:17.090Z,0.15
2019-01-29T04:20:17.094Z,0.18
2019-01-29T04:21:17.008Z,0.12
2019-01-29T04:22:17.029Z,0.11
2019-01-29T04:23:17.015Z,0.10
2019-01-29T04:24:16.897Z,0.15
2019-01-29T04:25:16.866Z,0.15
2019-01-29T04:26:16.826Z,0.12
2019-01-29T04:27:16.827Z,0.05
2019-01-29T04:28:16.749Z,0.08
2019-01-29T04:29:16.714Z,0.12
2019-01-29T04:30:16.672Z,0.00
2019-01-29T04:31:16.641Z,0.08
2019-01-29T04:32:16.643Z,0.05
2019-01-29T04:33:16.563Z,0.05
2019-01-29T04:34:16.526Z,0.07
2019-01-29T04:35:16.489Z,0.07
2019-01-29T04:36:16.452Z,-0.06
2019-01-29T04:37:16.455Z,0.00
2019-01-29T04:38:16.379Z,0.03
2019-01-29T04:39:16.342Z,0.03
2019-01-29T04:40:16.323Z,0.00
2019-01-29T04:41:16.264Z,-0.07
2019-01-29T04:42:16.281Z,-0.06
2019-01-29T04:43:16.241Z,-0.02
2019-01-29T04:44:16.153Z,-0.08
2019-01-29T04:45:16.165Z,-0.08
2019-01-29T04:46:16.097Z,-0.06
2019-01-29T04:47:16.046Z,-0.13
2019-01-29T04:48:16.010Z,-0.13
2019-01-29T04:49:15.973Z,-0.21
2019-01-29T04:50:15.990Z,-0.10
2019-01-29T04:51:15.952Z,-0.26
2019-01-29T04:52:16.627Z,-0.31
2019-01-29T04:53:15.863Z,-0.18
2019-01-29T04:54:15.787Z,-0.35
2019-01-29T04:55:15.792Z,-0.29
2019-01-29T04:56:15.714Z,-0.35
2019-01-29T04:57:15.680Z,-0.32
2019-01-29T04:58:15.677Z,-0.31
2019-01-29T04:59:15.596Z,-0.39
2019-01-29T05:00:15.568Z,-0.50
2019-01-29T05:01:15.525Z,-0.46
2019-01-29T05:02:15.532Z,-0.52
2019-01-29T05:03:15.495Z,-0.62
2019-01-29T05:04:15.420Z,-0.59
2019-01-29T05:05:15.395Z,-0.70
2019-01-29T05:06:15.382Z,-0.64
2019-01-29T05:07:15.313Z,-0.78
2019-01-29T05:08:15.279Z,-0.74
2019-01-29T05:09:15.233Z,-0.89
2019-01-29T05:10:15.191Z,-0.75
2019-01-29T05:11:15.204Z,-0.89
2019-01-29T05:12:15.114Z,-0.89
2019-01-29T05:13:15.126Z,-0.93
2019-01-29T05:14:15.037Z,-0.99
2019-01-29T05:15:15.006Z,-0.99
2019-01-29T05:16:15.107Z,-1.04
2019-01-29T05:17:15.056Z,-1.04
2019-01-29T05:18:14.939Z,-1.05
2019-01-29T05:19:15.534Z,-1.04
2019-01-29T05:20:14.870Z,-1.14
2019-01-29T05:21:14.781Z,-1.19
2019-01-29T05:22:15.706Z,-1.22
2019-01-29T05:23:17.093Z,-1.22
2019-01-29T05:24:17.185Z,-1.23
2019-01-29T05:25:14.790Z,-1.27
2019-01-29T05:26:15.548Z,-1.25
2019-01-29T05:27:14.665Z,-1.22
2019-01-29T05:28:14.509Z,-1.23
2019-01-29T05:29:14.534Z,-1.23
2019-01-29T05:30:14.432Z,-1.26
2019-01-29T05:31:14.395Z,-1.27
2019-01-29T05:32:14.367Z,-1.33
2019-01-29T05:33:14.320Z,-1.33
2019-01-29T05:34:14.342Z,-1.23
2019-01-29T05:35:14.251Z,-1.27
2019-01-29T05:36:14.207Z,-1.32
2019-01-29T05:37:14.213Z,-1.33
2019-01-29T05:38:14.131Z,-1.26
2019-01-29T05:39:14.137Z,-1.25
2019-01-29T05:40:14.118Z,-1.25
2019-01-29T05:41:14.020Z,-1.29
2019-01-29T05:42:13.980Z,-1.27
2019-01-29T05:43:13.939Z,-1.20
2019-01-29T05:44:13.912Z,-1.27
2019-01-29T05:45:13.913Z,-1.23
2019-01-29T05:46:13.831Z,-1.25
2019-01-29T05:47:13.791Z,-1.30
2019-01-29T05:48:13.754Z,-1.25
2019-01-29T05:49:13.774Z,-1.33
2019-01-29T05:50:13.723Z,-1.29
2019-01-29T05:51:13.648Z,-1.26
2019-01-29T05:52:13.607Z,-1.27
2019-01-29T05:53:13.561Z,-1.41
2019-01-29T05:54:16.472Z,-1.41
2019-01-29T05:55:13.489Z,-1.30
2019-01-29T05:56:14.135Z,-1.43
2019-01-29T05:57:13.413Z,-1.38
2019-01-29T05:58:13.429Z,-1.38
2019-01-29T05:59:13.335Z,-1.41
2019-01-29T06:00:13.299Z,-1.41
2019-01-29T06:01:13.258Z,-1.30
2019-01-29T06:02:13.219Z,-1.25
2019-01-29T06:03:13.250Z,-1.15
2019-01-29T06:04:13.148Z,-1.23
2019-01-29T06:05:13.110Z,-1.09
2019-01-29T06:06:13.132Z,-1.04
2019-01-29T06:07:13.032Z,-1.05
2019-01-29T06:08:12.993Z,-1.02
2019-01-29T06:09:12.953Z,-1.01
2019-01-29T06:10:13.009Z,-0.97
2019-01-29T06:11:12.926Z,-0.85
2019-01-29T06:12:12.879Z,-0.80
2019-01-29T06:13:12.815Z,-0.74
2019-01-29T06:14:12.765Z,-0.78
2019-01-29T06:15:12.772Z,-0.59
2019-01-29T06:16:12.696Z,-0.53
2019-01-29T06:17:12.702Z,-0.62
2019-01-29T06:18:12.617Z,-0.57
2019-01-29T06:19:12.576Z,-0.46
2019-01-29T06:20:12.547Z,-0.46
2019-01-29T06:21:12.555Z,-0.35
2019-01-29T06:22:12.463Z,-0.39
2019-01-29T06:23:12.435Z,-0.32
2019-01-29T06:24:12.439Z,-0.32
2019-01-29T06:25:12.354Z,-0.34
2019-01-29T06:26:12.376Z,-0.39
2019-01-29T06:27:12.277Z,-0.29
2019-01-29T06:28:12.249Z,-0.43
2019-01-29T06:29:12.203Z,-0.25
2019-01-29T06:30:12.175Z,-0.23
2019-01-29T06:31:12.189Z,-0.23
2019-01-29T06:32:12.170Z,-0.25
2019-01-29T06:33:12.057Z,-0.13
2019-01-29T06:34:12.037Z,-0.21
2019-01-29T06:35:11.991Z,-0.11
2019-01-29T06:36:12.538Z,-0.15
2019-01-29T06:37:11.903Z,-0.11
2019-01-29T06:38:11.890Z,-0.08
2019-01-29T06:39:11.897Z,0.01
2019-01-29T06:40:11.799Z,0.00
2019-01-29T06:41:11.759Z,0.03
2019-01-29T06:42:11.725Z,0.03
2019-01-29T06:43:11.734Z,0.01
2019-01-29T06:44:11.694Z,0.03
2019-01-29T06:45:11.612Z,0.12
2019-01-29T06:46:11.580Z,0.16
2019-01-29T06:47:11.536Z,0.07
2019-01-29T06:48:11.561Z,0.12
2019-01-29T06:49:11.471Z,0.11
2019-01-29T06:50:11.428Z,0.11
2019-01-29T06:51:11.389Z,0.11
2019-01-29T06:52:11.366Z,0.19
2019-01-29T06:53:11.359Z,0.16
2019-01-29T06:54:11.287Z,0.12
2019-01-29T06:55:11.247Z,0.15
2019-01-29T06:56:11.211Z,0.16
2019-01-29T06:57:11.169Z,0.18
2019-01-29T06:58:11.175Z,0.16
2019-01-29T06:59:11.155Z,0.15
2019-01-29T07:00:11.063Z,0.18
2019-01-29T07:01:11.038Z,0.19
2019-01-29T07:02:10.986Z,0.16
2019-01-29T07:03:10.951Z,0.16
2019-01-29T07:04:10.964Z,0.19
2019-01-29T07:05:10.879Z,0.28
2019-01-29T07:06:11.635Z,0.25
2019-01-29T07:07:10.830Z,0.26
2019-01-29T07:08:10.774Z,0.31
2019-01-29T07:09:10.772Z,0.29
2019-01-29T07:10:10.694Z,0.31
2019-01-29T07:11:10.656Z,0.36
2019-01-29T07:12:10.661Z,0.31
2019-01-29T07:13:10.634Z,0.32
2019-01-29T07:14:10.549Z,0.39
2019-01-29T07:15:10.513Z,0.34
2019-01-29T07:16:12.526Z,0.34
2019-01-29T07:17:10.442Z,0.32
2019-01-29T07:18:10.469Z,0.43
2019-01-29T07:19:10.364Z,0.34
2019-01-29T07:20:10.342Z,0.41
2019-01-29T07:21:10.296Z,0.41
2019-01-29T07:22:10.261Z,0.46
2019-01-29T07:23:10.260Z,0.50
2019-01-29T07:24:10.230Z,0.49
2019-01-29T07:25:10.145Z,0.50
2019-01-29T07:26:10.111Z,0.41
2019-01-29T07:27:10.116Z,0.56
2019-01-29T07:28:10.051Z,0.50
2019-01-29T07:29:10.069Z,0.55
2019-01-29T07:30:09.964Z,0.56
2019-01-29T07:31:09.942Z,0.52
2019-01-29T07:32:09.898Z,0.62
2019-01-29T07:33:09.879Z,0.68
2019-01-29T07:34:09.881Z,0.73
2019-01-29T07:35:09.785Z,0.70
2019-01-29T07:36:09.746Z,0.77
2019-01-29T07:37:09.715Z,0.70
2019-01-29T07:38:09.679Z,0.68
2019-01-29T07:39:09.694Z,0.78
2019-01-29T07:40:09.633Z,0.78
2019-01-29T07:41:10.541Z,0.68
2019-01-29T07:42:09.581Z,0.70
2019-01-29T07:43:09.494Z,0.69
2019-01-29T07:44:09.460Z,0.78
2019-01-29T07:45:09.421Z,0.74
2019-01-29T07:46:09.390Z,0.74
2019-01-29T07:47:09.392Z,0.74
2019-01-29T07:48:09.320Z,0.73
2019-01-29T07:49:09.289Z,0.77
2019-01-29T07:50:09.258Z,0.80
2019-01-29T07:51:09.207Z,0.80
2019-01-29T07:52:09.219Z,0.83
2019-01-29T07:53:09.146Z,0.81
2019-01-29T07:54:09.153Z,0.92
2019-01-29T07:55:09.064Z,0.92
2019-01-29T07:56:09.030Z,1.05
2019-01-29T07:57:09.062Z,0.94
2019-01-29T07:58:08.952Z,1.01
2019-01-29T07:59:08.966Z,1.04
2019-01-29T08:00:08.886Z,1.04
2019-01-29T08:01:08.850Z,1.05
2019-01-29T08:02:08.816Z,1.12
2019-01-29T08:03:08.779Z,1.17
2019-01-29T08:04:08.785Z,1.28
2019-01-29T08:05:08.750Z,1.41
2019-01-29T08:06:08.670Z,1.45
2019-01-29T08:07:08.635Z,1.45
2019-01-29T08:08:08.660Z,1.34
2019-01-29T08:09:08.598Z,1.32
2019-01-29T08:10:08.527Z,1.42
2019-01-29T08:11:08.491Z,1.45
2019-01-29T08:12:08.518Z,1.41
2019-01-29T08:13:08.417Z,1.45
2019-01-29T08:14:08.388Z,1.38
2019-01-29T08:15:08.351Z,1.34
2019-01-29T08:16:08.317Z,1.45
2019-01-29T08:17:08.323Z,1.45
2019-01-29T08:18:08.253Z,1.50
2019-01-29T08:19:08.218Z,1.45
2019-01-29T08:20:08.225Z,1.52
2019-01-29T08:21:08.138Z,1.52
2019-01-29T08:22:08.103Z,1.63
2019-01-29T08:23:08.110Z,1.71
2019-01-29T08:24:08.047Z,1.78
2019-01-29T08:25:07.996Z,1.76
2019-01-29T08:26:07.959Z,1.89
2019-01-29T08:27:07.975Z,1.88
2019-01-29T08:28:07.890Z,1.81
2019-01-29T08:29:07.857Z,1.77
2019-01-29T08:30:07.867Z,1.73
2019-01-29T08:31:07.795Z,1.84
2019-01-29T08:32:07.793Z,1.88
2019-01-29T08:33:07.713Z,1.95
2019-01-29T08:34:07.682Z,1.92
2019-01-29T08:35:07.688Z,1.97
2019-01-29T08:36:07.613Z,1.99
2019-01-29T08:37:07.631Z,1.99
2019-01-29T08:38:07.612Z,1.97
2019-01-29T08:39:07.508Z,1.99
2019-01-29T08:40:07.469Z,1.84
2019-01-29T08:41:07.445Z,1.88
2019-01-29T08:42:07.458Z,1.87
2019-01-29T08:43:07.366Z,1.88
2019-01-29T08:44:07.342Z,1.89
2019-01-29T08:45:07.300Z,1.87
2019-01-29T08:46:07.263Z,1.89
2019-01-29T08:47:07.273Z,1.85
2019-01-29T08:48:07.201Z,1.92
2019-01-29T08:49:07.160Z,2.00
2019-01-29T08:50:07.124Z,2.07
2019-01-29T08:51:07.097Z,2.14
2019-01-29T08:52:07.102Z,2.18
2019-01-29T08:53:07.020Z,2.06
2019-01-29T08:54:07.031Z,2.07
2019-01-29T08:55:10.785Z,2.02
2019-01-29T08:56:06.914Z,2.10
2019-01-29T08:57:08.926Z,2.18
2019-01-29T08:58:06.850Z,2.24
2019-01-29T08:59:06.813Z,2.35
2019-01-29T09:00:06.782Z,2.24
2019-01-29T09:01:08.717Z,2.28
2019-01-29T09:02:08.151Z,2.25
2019-01-29T09:03:06.722Z,2.26
2019-01-29T09:04:06.651Z,2.32
2019-01-29T09:05:06.609Z,2.33
2019-01-29T09:06:06.577Z,2.36
2019-01-29T09:07:06.537Z,2.33
2019-01-29T09:08:06.571Z,2.31
2019-01-29T09:09:06.505Z,2.35
2019-01-29T09:10:06.434Z,2.25
2019-01-29T09:11:06.398Z,2.31
2019-01-29T09:12:06.367Z,2.43
2019-01-29T09:13:06.326Z,2.36
2019-01-29T09:14:06.342Z,2.33
2019-01-29T09:15:06.256Z,2.36
2019-01-29T09:16:06.272Z,2.39
2019-01-29T09:17:06.195Z,2.33
2019-01-29T09:18:06.162Z,2.44
2019-01-29T09:19:06.126Z,2.32
2019-01-29T09:20:06.088Z,2.22
2019-01-29T09:21:06.102Z,2.08
2019-01-29T09:22:06.035Z,2.11
2019-01-29T09:23:05.986Z,2.07
2019-01-29T09:24:05.951Z,2.07
2019-01-29T09:25:05.943Z,2.00
2019-01-29T09:26:05.929Z,2.04
2019-01-29T09:27:05.854Z,2.06
2019-01-29T09:28:05.858Z,2.04
2019-01-29T09:29:05.780Z,2.02
2019-01-29T09:30:05.756Z,2.00
2019-01-29T09:31:05.713Z,2.00
2019-01-29T09:32:05.727Z,2.06
2019-01-29T09:33:05.650Z,2.04
2019-01-29T09:34:05.608Z,2.07
2019-01-29T09:35:05.636Z,2.07
2019-01-29T09:36:05.540Z,2.11
2019-01-29T09:37:05.527Z,2.14
2019-01-29T09:38:05.476Z,2.08
2019-01-29T09:39:05.436Z,2.04
2019-01-29T09:40:05.442Z,2.14
2019-01-29T09:41:05.449Z,2.26
2019-01-29T09:42:05.334Z,2.31
2019-01-29T09:43:05.295Z,2.31
2019-01-29T09:44:05.262Z,2.36
2019-01-29T09:45:05.224Z,2.36
2019-01-29T09:46:05.227Z,2.31
2019-01-29T09:47:05.223Z,2.22
2019-01-29T09:48:05.170Z,2.29
2019-01-29T09:49:05.089Z,2.32
2019-01-29T09:50:05.052Z,2.32
2019-01-29T09:51:05.017Z,2.29
2019-01-29T09:52:05.043Z,2.35
2019-01-29T09:53:04.952Z,2.49
2019-01-29T09:54:04.914Z,2.60
2019-01-29T09:55:04.945Z,2.61
2019-01-29T09:56:04.910Z,2.69
2019-01-29T09:57:04.818Z,2.77
2019-01-29T09:58:04.776Z,2.77
2019-01-29T09:59:04.741Z,2.83
2019-01-29T10:00:04.715Z,2.74
2019-01-29T10:01:04.713Z,2.80
2019-01-29T10:02:04.641Z,2.77
2019-01-29T10:03:04.725Z,2.75
2019-01-29T10:04:04.571Z,2.74
2019-01-29T10:05:04.536Z,2.68
2019-01-29T10:06:04.504Z,2.71
2019-01-29T10:07:04.480Z,2.62
2019-01-29T10:08:04.490Z,2.62
2019-01-29T10:09:04.402Z,2.67
2019-01-29T10:10:04.366Z,2.79
2019-01-29T10:11:04.333Z,2.86
2019-01-29T10:12:04.346Z,2.89
2019-01-29T10:13:04.273Z,3.11
2019-01-29T10:14:04.238Z,3.21
2019-01-29T10:15:04.200Z,3.25
2019-01-29T10:16:04.162Z,3.23
2019-01-29T10:17:04.170Z,3.21
2019-01-29T10:18:04.098Z,3.25
2019-01-29T10:19:04.065Z,3.32
2019-01-29T10:20:04.038Z,3.23
2019-01-29T10:21:03.993Z,3.25
2019-01-29T10:22:03.964Z,3.23
2019-01-29T10:23:03.976Z,3.37
2019-01-29T10:24:03.897Z,3.41
2019-01-29T10:25:03.864Z,3.32
2019-01-29T10:26:03.826Z,3.28
2019-01-29T10:27:03.837Z,3.29
2019-01-29T10:28:03.758Z,3.22
2019-01-29T10:29:03.728Z,3.25
2019-01-29T10:30:03.689Z,3.21
2019-01-29T10:31:03.658Z,3.29
2019-01-29T10:32:03.687Z,3.29
2019-01-29T10:33:03.585Z,3.13
2019-01-29T10:34:03.561Z,3.19
2019-01-29T10:35:03.524Z,3.32
2019-01-29T10:36:03.485Z,3.36
2019-01-29T10:37:04.069Z,3.29
2019-01-29T10:38:03.429Z,3.36
2019-01-29T10:39:03.395Z,3.51
2019-01-29T10:40:03.402Z,3.44
2019-01-29T10:41:03.334Z,3.32
2019-01-29T10:42:03.291Z,3.25
2019-01-29T10:43:03.269Z,3.04
2019-01-29T10:44:03.224Z,3.08
2019-01-29T10:45:03.236Z,2.97
2019-01-29T10:46:03.206Z,2.83
2019-01-29T10:47:03.119Z,2.71
2019-01-29T10:48:03.088Z,2.82
2019-01-29T10:49:03.102Z,2.89
2019-01-29T10:50:03.030Z,3.01
2019-01-29T10:51:02.988Z,3.08
2019-01-29T10:52:02.985Z,3.16
2019-01-29T10:53:02.924Z,3.14
2019-01-29T10:54:02.930Z,3.03
2019-01-29T10:55:02.854Z,3.11
2019-01-29T10:56:02.860Z,3.18
2019-01-29T10:57:02.789Z,3.19
2019-01-29T10:58:02.752Z,3.19
2019-01-29T10:59:02.731Z,3.18
2019-01-29T11:00:02.745Z,3.18
2019-01-29T11:01:02.648Z,3.18
2019-01-29T11:02:02.643Z,3.26
2019-01-29T11:03:02.603Z,3.29
2019-01-29T11:04:02.552Z,3.47
2019-01-29T11:05:02.564Z,3.42
2019-01-29T11:06:02.524Z,3.45
2019-01-29T11:07:02.447Z,3.50
2019-01-29T11:08:02.421Z,3.58
2019-01-29T11:09:02.403Z,3.63
2019-01-29T11:10:02.347Z,3.73
2019-01-29T11:11:02.465Z,3.55
2019-01-29T11:12:02.313Z,3.50
2019-01-29T11:13:02.273Z,3.51
2019-01-29T11:14:02.241Z,3.44
2019-01-29T11:15:02.184Z,3.42
2019-01-29T11:16:02.202Z,3.47
2019-01-29T11:17:02.117Z,3.44
2019-01-29T11:18:02.118Z,3.40
2019-01-29T11:19:03.464Z,3.32
2019-01-29T11:20:02.019Z,3.29
2019-01-29T11:21:01.983Z,3.25
2019-01-29T11:22:01.997Z,3.32
2019-01-29T11:23:01.919Z,3.42
2019-01-29T11:24:01.924Z,3.44
2019-01-29T11:25:01.846Z,3.28
2019-01-29T11:26:01.810Z,3.44
2019-01-29T11:27:01.829Z,3.45
2019-01-29T11:28:01.752Z,3.50
2019-01-29T11:29:01.764Z,3.56
2019-01-29T11:30:01.677Z,3.59
2019-01-29T11:31:01.647Z,3.56
2019-01-29T11:32:01.610Z,3.63
2019-01-29T11:33:01.577Z,3.65
2019-01-29T11:34:01.604Z,3.56
2019-01-29T11:35:01.514Z,3.63
2019-01-29T11:36:01.478Z,3.56
2019-01-29T11:37:01.452Z,3.59
2019-01-29T11:38:01.408Z,3.36
2019-01-29T11:39:01.419Z,3.44
2019-01-29T11:40:01.343Z,3.41
2019-01-29T11:41:01.307Z,3.44
2019-01-29T11:42:01.280Z,3.25
2019-01-29T11:43:01.287Z,3.23
2019-01-29T11:44:01.210Z,3.41
2019-01-29T11:45:01.177Z,3.31
2019-01-29T11:46:01.214Z,3.31
2019-01-29T11:47:01.109Z,3.45
2019-01-29T11:48:01.078Z,3.48
2019-01-29T11:49:02.727Z,3.48
2019-01-29T11:50:01.010Z,3.59
2019-01-29T11:51:00.973Z,3.59
2019-01-29T11:52:00.987Z,3.59
2019-01-29T11:53:00.908Z,3.76
2019-01-29T11:54:00.871Z,3.76
2019-01-29T11:55:00.851Z,3.74
2019-01-29T11:56:04.648Z,3.76
2019-01-29T11:57:00.786Z,3.81
2019-01-29T11:58:00.737Z,3.96
2019-01-29T11:59:00.708Z,4.19
2019-01-29T12:00:00.670Z,4.24
2019-01-29T12:01:00.699Z,4.22
2019-01-29T12:02:00.613Z,4.35
2019-01-29T12:03:00.580Z,4.32
2019-01-29T12:04:00.551Z,4.23
2019-01-29T12:05:00.516Z,4.06
2019-01-29T12:06:00.522Z,3.80
2019-01-29T12:07:00.441Z,3.68
2019-01-29T12:08:00.409Z,3.62
2019-01-29T12:09:00.472Z,3.68
2019-01-29T12:10:00.372Z,3.65
2019-01-29T12:11:00.347Z,3.65
2019-01-29T12:12:00.337Z,3.74
2019-01-29T12:13:02.306Z,3.63
2019-01-29T12:14:00.215Z,3.70
2019-01-29T12:15:00.182Z,3.69
2019-01-29T12:16:00.146Z,3.80
2019-01-29T12:17:00.167Z,3.83
2019-01-29T12:18:00.080Z,4.04
2019-01-29T12:19:00.063Z,4.02
2019-01-29T12:20:00.014Z,4.06
2019-01-29T12:20:59.978Z,4.06
2019-01-29T12:21:59.985Z,4.02
2019-01-29T12:22:59.953Z,4.08
2019-01-29T12:23:59.923Z,4.26
2019-01-29T12:24:59.842Z,4.20
2019-01-29T12:25:59.819Z,4.13
2019-01-29T12:26:59.776Z,3.96
2019-01-29T12:27:59.797Z,3.88
2019-01-29T12:28:59.711Z,3.87
2019-01-29T12:29:59.676Z,3.76
2019-01-29T12:30:59.717Z,3.74
2019-01-29T12:31:59.610Z,3.62
2019-01-29T12:32:59.582Z,3.66
2019-01-29T12:33:59.543Z,3.55
2019-01-29T12:34:59.511Z,3.55
2019-01-29T12:35:59.518Z,3.48
2019-01-29T12:36:59.495Z,3.48
2019-01-29T12:37:59.412Z,3.41
2019-01-29T12:38:59.375Z,3.55
2019-01-29T12:39:59.345Z,3.68
2019-01-29T12:40:59.320Z,3.59
2019-01-29T12:41:59.327Z,3.63
2019-01-29T12:42:59.295Z,3.73
2019-01-29T12:43:59.206Z,3.68
2019-01-29T12:44:59.187Z,3.69
2019-01-29T12:45:59.184Z,3.56
2019-01-29T12:46:59.111Z,3.59
2019-01-29T12:47:59.122Z,3.62
2019-01-29T12:48:59.038Z,3.56
2019-01-29T12:49:59.009Z,3.56
2019-01-29T12:50:58.977Z,3.65
2019-01-29T12:51:58.986Z,3.56
2019-01-29T12:52:58.904Z,3.45
2019-01-29T12:53:58.943Z,3.48
2019-01-29T12:54:58.838Z,3.70
2019-01-29T12:55:58.807Z,3.77
2019-01-29T12:56:58.774Z,3.87
2019-01-29T12:57:58.737Z,3.99
2019-01-29T12:58:58.756Z,4.06
2019-01-29T12:59:58.669Z,4.12
2019-01-29T13:00:58.640Z,4.22
2019-01-29T13:01:58.604Z,4.14
2019-01-29T13:02:58.572Z,4.28
2019-01-29T13:03:58.584Z,4.22
2019-01-29T13:04:58.549Z,4.19
2019-01-29T13:05:58.475Z,4.19
2019-01-29T13:06:58.437Z,4.22
2019-01-29T13:07:58.403Z,4.35
2019-01-29T13:08:58.370Z,4.31
2019-01-29T13:09:58.379Z,4.24
2019-01-29T13:10:58.305Z,4.37
2019-01-29T13:11:58.290Z,4.37
2019-01-29T13:12:58.239Z,4.45
2019-01-29T13:13:58.269Z,4.45